sensor_id;sensor_type;location;lat;lon;timestamp;temperature;humidity
52016;DHT22;38032;53.326;6.472;2024-03-02T00:00:03;7.80;99.90
52016;DHT22;38032;53.326;6.472;2024-03-02T00:02:40;7.70;99.90
52016;DHT22;38032;53.326;6.472;2024-03-02T00:05:07;7.60;99.90
52016;DHT22;38032;53.326;6.472;2024-03-02T00:07:33;7.60;99.90
52016;DHT22;38032;53.326;6.472;2024-03-02T00:10:00;7.60;99.90
52016;DHT22;38032;53.326;6.472;2024-03-02T00:12:26;7.60;99.90
52016;DHT22;38032;53.326;6.472;2024-03-02T00:14:52;7.60;99.90
52016;DHT22;38032;53.326;6.472;2024-03-02T00:17:24;7.60;99.90
52016;DHT22;38032;53.326;6.472;2024-03-02T00:19:51;7.60;99.90
52016;DHT22;38032;53.326;6.472;2024-03-02T00:22:18;7.60;99.90
52016;DHT22;38032;53.326;6.472;2024-03-02T00:24:44;7.60;99.90
52016;DHT22;38032;53.326;6.472;2024-03-02T00:27:13;7.60;99.90
52016;DHT22;38032;53.326;6.472;2024-03-02T00:29:40;7.60;99.90
52016;DHT22;38032;53.326;6.472;2024-03-02T00:32:13;7.50;99.90
52016;DHT22;38032;53.326;6.472;2024-03-02T00:34:41;7.50;99.90
52016;DHT22;38032;53.326;6.472;2024-03-02T00:37:08;7.50;99.90
52016;DHT22;38032;53.326;6.472;2024-03-02T00:39:34;7.50;99.90
52016;DHT22;38032;53.326;6.472;2024-03-02T00:42:00;7.50;99.90
52016;DHT22;38032;53.326;6.472;2024-03-02T00:44:26;7.50;99.90
52016;DHT22;38032;53.326;6.472;2024-03-02T00:46:53;7.50;99.90
52016;DHT22;38032;53.326;6.472;2024-03-02T00:49:23;7.60;99.90
52016;DHT22;38032;53.326;6.472;2024-03-02T00:51:51;7.60;99.90
52016;DHT22;38032;53.326;6.472;2024-03-02T00:54:22;7.60;99.90
52016;DHT22;38032;53.326;6.472;2024-03-02T00:56:50;7.70;99.90
52016;DHT22;38032;53.326;6.472;2024-03-02T00:59:16;7.70;99.90
52016;DHT22;38032;53.326;6.472;2024-03-02T01:01:42;7.80;99.90
52016;DHT22;38032;53.326;6.472;2024-03-02T01:04:09;7.90;99.90
52016;DHT22;38032;53.326;6.472;2024-03-02T01:06:36;7.90;99.90
52016;DHT22;38032;53.326;6.472;2024-03-02T01:09:02;7.90;99.90
52016;DHT22;38032;53.326;6.472;2024-03-02T01:11:29;7.90;99.90
52016;DHT22;38032;53.326;6.472;2024-03-02T01:13:55;7.90;99.90
52016;DHT22;38032;53.326;6.472;2024-03-02T01:16:21;7.90;99.90
52016;DHT22;38032;53.326;6.472;2024-03-02T01:18:47;7.90;99.90
52016;DHT22;38032;53.326;6.472;2024-03-02T01:21:13;7.90;99.90
52016;DHT22;38032;53.326;6.472;2024-03-02T01:23:39;7.90;99.90
52016;DHT22;38032;53.326;6.472;2024-03-02T01:26:05;7.90;99.90
52016;DHT22;38032;53.326;6.472;2024-03-02T01:28:31;7.90;99.90
52016;DHT22;38032;53.326;6.472;2024-03-02T01:30:57;7.90;99.90
52016;DHT22;38032;53.326;6.472;2024-03-02T01:33:23;7.90;99.90
52016;DHT22;38032;53.326;6.472;2024-03-02T01:35:48;7.90;99.90
52016;DHT22;38032;53.326;6.472;2024-03-02T01:38:14;7.90;99.90
52016;DHT22;38032;53.326;6.472;2024-03-02T01:40:40;7.90;99.90
52016;DHT22;38032;53.326;6.472;2024-03-02T01:43:07;8.00;99.90
52016;DHT22;38032;53.326;6.472;2024-03-02T01:45:33;7.90;99.90
52016;DHT22;38032;53.326;6.472;2024-03-02T01:48:01;7.90;99.90
52016;DHT22;38032;53.326;6.472;2024-03-02T01:50:29;7.90;99.90
52016;DHT22;38032;53.326;6.472;2024-03-02T01:52:56;7.90;99.90
52016;DHT22;38032;53.326;6.472;2024-03-02T01:55:22;8.00;99.90
52016;DHT22;38032;53.326;6.472;2024-03-02T01:57:49;8.00;99.90
52016;DHT22;38032;53.326;6.472;2024-03-02T02:00:17;8.00;99.90
52016;DHT22;38032;53.326;6.472;2024-03-02T02:02:43;8.00;99.90
52016;DHT22;38032;53.326;6.472;2024-03-02T02:05:09;8.00;99.90
52016;DHT22;38032;53.326;6.472;2024-03-02T02:07:36;8.00;99.90
52016;DHT22;38032;53.326;6.472;2024-03-02T02:10:01;8.00;99.90
52016;DHT22;38032;53.326;6.472;2024-03-02T02:12:28;8.00;99.90
52016;DHT22;38032;53.326;6.472;2024-03-02T02:14:53;8.00;99.90
52016;DHT22;38032;53.326;6.472;2024-03-02T02:17:20;8.00;99.90
52016;DHT22;38032;53.326;6.472;2024-03-02T02:19:46;8.10;99.90
52016;DHT22;38032;53.326;6.472;2024-03-02T02:22:12;8.10;99.90
52016;DHT22;38032;53.326;6.472;2024-03-02T02:24:43;8.10;99.90
52016;DHT22;38032;53.326;6.472;2024-03-02T02:27:10;8.10;99.90
52016;DHT22;38032;53.326;6.472;2024-03-02T02:29:36;8.10;99.90
52016;DHT22;38032;53.326;6.472;2024-03-02T02:32:02;8.10;99.90
52016;DHT22;38032;53.326;6.472;2024-03-02T02:34:28;8.20;99.90
52016;DHT22;38032;53.326;6.472;2024-03-02T02:36:54;8.10;99.90
52016;DHT22;38032;53.326;6.472;2024-03-02T02:39:21;8.10;99.90
52016;DHT22;38032;53.326;6.472;2024-03-02T02:41:48;8.10;99.90
52016;DHT22;38032;53.326;6.472;2024-03-02T02:44:14;8.10;99.90
52016;DHT22;38032;53.326;6.472;2024-03-02T02:46:40;8.10;99.90
52016;DHT22;38032;53.326;6.472;2024-03-02T02:49:06;8.10;99.90
52016;DHT22;38032;53.326;6.472;2024-03-02T02:51:32;8.10;99.90
52016;DHT22;38032;53.326;6.472;2024-03-02T02:53:58;8.10;99.90
52016;DHT22;38032;53.326;6.472;2024-03-02T02:56:24;8.10;99.90
52016;DHT22;38032;53.326;6.472;2024-03-02T02:58:50;8.20;99.90
52016;DHT22;38032;53.326;6.472;2024-03-02T03:01:16;8.20;99.90
52016;DHT22;38032;53.326;6.472;2024-03-02T03:03:44;8.20;99.90
52016;DHT22;38032;53.326;6.472;2024-03-02T03:06:10;8.20;99.90
52016;DHT22;38032;53.326;6.472;2024-03-02T03:08:36;8.30;99.90
52016;DHT22;38032;53.326;6.472;2024-03-02T03:11:03;8.30;99.90
52016;DHT22;38032;53.326;6.472;2024-03-02T03:13:29;8.30;99.90
52016;DHT22;38032;53.326;6.472;2024-03-02T03:15:55;8.30;99.90
52016;DHT22;38032;53.326;6.472;2024-03-02T03:18:20;8.30;99.90
52016;DHT22;38032;53.326;6.472;2024-03-02T03:20:46;8.40;99.90
52016;DHT22;38032;53.326;6.472;2024-03-02T03:23:12;8.40;99.90
52016;DHT22;38032;53.326;6.472;2024-03-02T03:25:44;8.40;99.90
52016;DHT22;38032;53.326;6.472;2024-03-02T03:28:10;8.40;99.90
52016;DHT22;38032;53.326;6.472;2024-03-02T03:30:37;8.40;99.90
52016;DHT22;38032;53.326;6.472;2024-03-02T03:33:04;8.30;99.90
52016;DHT22;38032;53.326;6.472;2024-03-02T03:35:32;8.40;99.90
52016;DHT22;38032;53.326;6.472;2024-03-02T03:37:58;8.30;99.90
52016;DHT22;38032;53.326;6.472;2024-03-02T03:40:24;8.30;99.90
52016;DHT22;38032;53.326;6.472;2024-03-02T03:42:50;8.30;99.90
52016;DHT22;38032;53.326;6.472;2024-03-02T03:45:16;8.30;99.90
52016;DHT22;38032;53.326;6.472;2024-03-02T03:47:42;8.30;99.90
52016;DHT22;38032;53.326;6.472;2024-03-02T03:50:09;8.20;99.90
52016;DHT22;38032;53.326;6.472;2024-03-02T03:52:35;8.20;99.90
52016;DHT22;38032;53.326;6.472;2024-03-02T03:55:01;8.20;99.90
52016;DHT22;38032;53.326;6.472;2024-03-02T03:57:27;8.10;99.90
52016;DHT22;38032;53.326;6.472;2024-03-02T03:59:53;8.10;99.90
52016;DHT22;38032;53.326;6.472;2024-03-02T04:02:19;8.00;99.90
52016;DHT22;38032;53.326;6.472;2024-03-02T04:04:45;8.00;99.90
52016;DHT22;38032;53.326;6.472;2024-03-02T04:07:11;8.00;99.90
52016;DHT22;38032;53.326;6.472;2024-03-02T04:09:37;8.00;99.90
52016;DHT22;38032;53.326;6.472;2024-03-02T04:12:03;8.00;99.90
52016;DHT22;38032;53.326;6.472;2024-03-02T04:14:29;8.00;99.90
52016;DHT22;38032;53.326;6.472;2024-03-02T04:16:55;8.00;99.90
52016;DHT22;38032;53.326;6.472;2024-03-02T04:19:21;8.00;99.90
52016;DHT22;38032;53.326;6.472;2024-03-02T04:21:47;8.00;99.90
52016;DHT22;38032;53.326;6.472;2024-03-02T04:24:13;8.00;99.90
52016;DHT22;38032;53.326;6.472;2024-03-02T04:26:39;8.00;99.90
52016;DHT22;38032;53.326;6.472;2024-03-02T04:29:05;8.00;99.90
52016;DHT22;38032;53.326;6.472;2024-03-02T04:31:30;8.00;99.90
52016;DHT22;38032;53.326;6.472;2024-03-02T04:33:56;8.10;99.90
52016;DHT22;38032;53.326;6.472;2024-03-02T04:36:22;8.10;99.90
52016;DHT22;38032;53.326;6.472;2024-03-02T04:38:49;8.10;99.90
52016;DHT22;38032;53.326;6.472;2024-03-02T04:41:15;8.10;99.90
52016;DHT22;38032;53.326;6.472;2024-03-02T04:43:40;8.20;99.90
52016;DHT22;38032;53.326;6.472;2024-03-02T04:46:07;8.20;99.90
52016;DHT22;38032;53.326;6.472;2024-03-02T04:48:33;8.20;99.90
52016;DHT22;38032;53.326;6.472;2024-03-02T04:50:59;8.20;99.90
52016;DHT22;38032;53.326;6.472;2024-03-02T04:53:25;8.20;99.90
52016;DHT22;38032;53.326;6.472;2024-03-02T04:55:51;8.30;99.90
52016;DHT22;38032;53.326;6.472;2024-03-02T04:58:35;8.30;99.90
52016;DHT22;38032;53.326;6.472;2024-03-02T05:01:01;8.30;99.90
52016;DHT22;38032;53.326;6.472;2024-03-02T05:03:27;8.20;99.90
52016;DHT22;38032;53.326;6.472;2024-03-02T05:05:53;8.20;99.90
52016;DHT22;38032;53.326;6.472;2024-03-02T05:08:19;8.20;99.90
52016;DHT22;38032;53.326;6.472;2024-03-02T05:10:44;8.20;99.90
52016;DHT22;38032;53.326;6.472;2024-03-02T05:13:11;8.10;99.90
52016;DHT22;38032;53.326;6.472;2024-03-02T05:15:37;8.20;99.90
52016;DHT22;38032;53.326;6.472;2024-03-02T05:18:03;8.20;99.90
52016;DHT22;38032;53.326;6.472;2024-03-02T05:20:30;8.20;99.90
52016;DHT22;38032;53.326;6.472;2024-03-02T05:22:56;8.20;99.90
52016;DHT22;38032;53.326;6.472;2024-03-02T05:25:22;8.20;99.90
52016;DHT22;38032;53.326;6.472;2024-03-02T05:27:48;8.20;99.90
52016;DHT22;38032;53.326;6.472;2024-03-02T05:30:14;8.20;99.90
52016;DHT22;38032;53.326;6.472;2024-03-02T05:32:40;8.20;99.90
52016;DHT22;38032;53.326;6.472;2024-03-02T05:35:06;8.20;99.90
52016;DHT22;38032;53.326;6.472;2024-03-02T05:37:33;8.20;99.90
52016;DHT22;38032;53.326;6.472;2024-03-02T05:39:59;8.20;99.90
52016;DHT22;38032;53.326;6.472;2024-03-02T05:42:25;8.20;99.90
52016;DHT22;38032;53.326;6.472;2024-03-02T05:44:52;8.30;99.90
52016;DHT22;38032;53.326;6.472;2024-03-02T05:47:18;8.30;99.90
52016;DHT22;38032;53.326;6.472;2024-03-02T05:49:44;8.30;99.90
52016;DHT22;38032;53.326;6.472;2024-03-02T05:52:10;8.30;99.90
52016;DHT22;38032;53.326;6.472;2024-03-02T05:54:37;8.30;99.90
52016;DHT22;38032;53.326;6.472;2024-03-02T05:57:03;8.30;99.90
52016;DHT22;38032;53.326;6.472;2024-03-02T05:59:42;8.40;99.90
52016;DHT22;38032;53.326;6.472;2024-03-02T06:02:09;8.30;99.90
52016;DHT22;38032;53.326;6.472;2024-03-02T06:04:35;8.30;99.90
52016;DHT22;38032;53.326;6.472;2024-03-02T06:07:00;8.30;99.90
52016;DHT22;38032;53.326;6.472;2024-03-02T06:09:26;8.30;99.90
52016;DHT22;38032;53.326;6.472;2024-03-02T06:11:52;8.30;99.90
52016;DHT22;38032;53.326;6.472;2024-03-02T06:14:18;8.30;99.90
52016;DHT22;38032;53.326;6.472;2024-03-02T06:16:44;8.30;99.90
52016;DHT22;38032;53.326;6.472;2024-03-02T06:19:10;8.30;99.90
52016;DHT22;38032;53.326;6.472;2024-03-02T06:21:35;8.30;99.90
52016;DHT22;38032;53.326;6.472;2024-03-02T06:24:01;8.30;99.90
52016;DHT22;38032;53.326;6.472;2024-03-02T06:26:27;8.30;99.90
52016;DHT22;38032;53.326;6.472;2024-03-02T06:28:54;8.30;99.90
52016;DHT22;38032;53.326;6.472;2024-03-02T06:31:20;8.30;99.90
52016;DHT22;38032;53.326;6.472;2024-03-02T06:33:46;8.30;99.90
52016;DHT22;38032;53.326;6.472;2024-03-02T06:36:12;8.20;99.90
52016;DHT22;38032;53.326;6.472;2024-03-02T06:38:38;8.30;99.90
52016;DHT22;38032;53.326;6.472;2024-03-02T06:41:06;8.30;99.90
52016;DHT22;38032;53.326;6.472;2024-03-02T06:43:32;8.30;99.90
52016;DHT22;38032;53.326;6.472;2024-03-02T06:45:58;8.30;99.90
52016;DHT22;38032;53.326;6.472;2024-03-02T06:48:23;8.30;99.90
52016;DHT22;38032;53.326;6.472;2024-03-02T06:50:50;8.30;99.90
52016;DHT22;38032;53.326;6.472;2024-03-02T06:53:17;8.30;99.90
52016;DHT22;38032;53.326;6.472;2024-03-02T06:55:44;8.30;99.90
52016;DHT22;38032;53.326;6.472;2024-03-02T06:58:12;8.40;99.90
52016;DHT22;38032;53.326;6.472;2024-03-02T07:00:38;8.40;99.90
52016;DHT22;38032;53.326;6.472;2024-03-02T07:03:04;8.40;99.90
52016;DHT22;38032;53.326;6.472;2024-03-02T07:05:30;8.50;99.90
52016;DHT22;38032;53.326;6.472;2024-03-02T07:07:56;8.50;99.90
52016;DHT22;38032;53.326;6.472;2024-03-02T07:10:22;8.60;99.90
52016;DHT22;38032;53.326;6.472;2024-03-02T07:12:48;8.60;99.90
52016;DHT22;38032;53.326;6.472;2024-03-02T07:15:14;8.70;99.90
52016;DHT22;38032;53.326;6.472;2024-03-02T07:17:53;8.70;99.90
52016;DHT22;38032;53.326;6.472;2024-03-02T07:20:19;8.90;99.90
52016;DHT22;38032;53.326;6.472;2024-03-02T07:22:44;8.90;99.90
52016;DHT22;38032;53.326;6.472;2024-03-02T07:25:11;9.00;99.90
52016;DHT22;38032;53.326;6.472;2024-03-02T07:27:36;9.10;99.90
52016;DHT22;38032;53.326;6.472;2024-03-02T07:30:03;9.10;99.90
52016;DHT22;38032;53.326;6.472;2024-03-02T07:32:29;9.20;99.90
52016;DHT22;38032;53.326;6.472;2024-03-02T07:34:55;9.20;99.90
52016;DHT22;38032;53.326;6.472;2024-03-02T07:37:23;9.10;99.90
52016;DHT22;38032;53.326;6.472;2024-03-02T07:39:49;9.10;99.90
52016;DHT22;38032;53.326;6.472;2024-03-02T07:42:15;9.00;99.90
52016;DHT22;38032;53.326;6.472;2024-03-02T07:44:41;9.00;99.90
52016;DHT22;38032;53.326;6.472;2024-03-02T07:47:08;8.90;99.90
52016;DHT22;38032;53.326;6.472;2024-03-02T07:49:34;8.90;99.90
52016;DHT22;38032;53.326;6.472;2024-03-02T07:52:00;8.90;99.90
52016;DHT22;38032;53.326;6.472;2024-03-02T07:54:26;9.10;99.90
52016;DHT22;38032;53.326;6.472;2024-03-02T07:56:52;9.50;99.90
52016;DHT22;38032;53.326;6.472;2024-03-02T07:59:18;9.90;99.90
52016;DHT22;38032;53.326;6.472;2024-03-02T08:01:44;10.20;99.90
52016;DHT22;38032;53.326;6.472;2024-03-02T08:04:10;10.40;99.90
52016;DHT22;38032;53.326;6.472;2024-03-02T08:06:36;10.50;99.90
52016;DHT22;38032;53.326;6.472;2024-03-02T08:09:02;10.60;99.90
52016;DHT22;38032;53.326;6.472;2024-03-02T08:11:34;10.90;99.90
52016;DHT22;38032;53.326;6.472;2024-03-02T08:14:00;11.10;99.90
52016;DHT22;38032;53.326;6.472;2024-03-02T08:16:26;11.20;99.90
52016;DHT22;38032;53.326;6.472;2024-03-02T08:18:53;11.30;99.90
52016;DHT22;38032;53.326;6.472;2024-03-02T08:21:19;11.80;99.90
52016;DHT22;38032;53.326;6.472;2024-03-02T08:23:45;12.80;99.90
52016;DHT22;38032;53.326;6.472;2024-03-02T08:26:11;14.20;99.90
52016;DHT22;38032;53.326;6.472;2024-03-02T08:28:38;15.40;99.90
52016;DHT22;38032;53.326;6.472;2024-03-02T08:31:06;16.60;99.90
52016;DHT22;38032;53.326;6.472;2024-03-02T08:33:33;17.20;99.20
52016;DHT22;38032;53.326;6.472;2024-03-02T08:35:59;17.30;96.30
52016;DHT22;38032;53.326;6.472;2024-03-02T08:38:26;17.40;94.20
52016;DHT22;38032;53.326;6.472;2024-03-02T08:40:52;17.30;93.40
52016;DHT22;38032;53.326;6.472;2024-03-02T08:43:18;17.20;92.80
52016;DHT22;38032;53.326;6.472;2024-03-02T08:45:44;17.30;92.40
52016;DHT22;38032;53.326;6.472;2024-03-02T08:48:10;17.70;91.60
52016;DHT22;38032;53.326;6.472;2024-03-02T08:50:36;17.90;91.00
52016;DHT22;38032;53.326;6.472;2024-03-02T08:53:04;18.00;89.80
52016;DHT22;38032;53.326;6.472;2024-03-02T08:55:30;17.90;88.20
52016;DHT22;38032;53.326;6.472;2024-03-02T08:57:56;17.40;87.70
52016;DHT22;38032;53.326;6.472;2024-03-02T09:00:22;16.60;87.50
52016;DHT22;38032;53.326;6.472;2024-03-02T09:02:48;16.00;89.00
52016;DHT22;38032;53.326;6.472;2024-03-02T09:05:14;15.40;90.70
52016;DHT22;38032;53.326;6.472;2024-03-02T09:07:40;14.40;92.30
52016;DHT22;38032;53.326;6.472;2024-03-02T09:10:08;14.10;93.80
52016;DHT22;38032;53.326;6.472;2024-03-02T09:12:34;13.90;98.10
52016;DHT22;38032;53.326;6.472;2024-03-02T09:15:01;14.10;99.40
52016;DHT22;38032;53.326;6.472;2024-03-02T09:17:29;14.10;99.00
52016;DHT22;38032;53.326;6.472;2024-03-02T09:19:55;14.10;98.30
52016;DHT22;38032;53.326;6.472;2024-03-02T09:22:21;14.00;98.40
52016;DHT22;38032;53.326;6.472;2024-03-02T09:24:47;14.40;98.70
52016;DHT22;38032;53.326;6.472;2024-03-02T09:27:13;15.00;96.70
52016;DHT22;38032;53.326;6.472;2024-03-02T09:29:39;15.50;97.20
52016;DHT22;38032;53.326;6.472;2024-03-02T09:32:05;16.10;96.10
52016;DHT22;38032;53.326;6.472;2024-03-02T09:34:32;16.00;94.90
52016;DHT22;38032;53.326;6.472;2024-03-02T09:36:58;16.00;96.10
52016;DHT22;38032;53.326;6.472;2024-03-02T09:39:24;15.90;95.70
52016;DHT22;38032;53.326;6.472;2024-03-02T09:41:51;15.90;95.60
52016;DHT22;38032;53.326;6.472;2024-03-02T09:44:17;15.60;95.70
52016;DHT22;38032;53.326;6.472;2024-03-02T09:46:43;15.40;95.70
52016;DHT22;38032;53.326;6.472;2024-03-02T09:49:11;15.40;96.00
52016;DHT22;38032;53.326;6.472;2024-03-02T09:51:37;15.70;95.70
52016;DHT22;38032;53.326;6.472;2024-03-02T09:54:03;15.80;95.40
52016;DHT22;38032;53.326;6.472;2024-03-02T09:56:29;16.20;95.40
52016;DHT22;38032;53.326;6.472;2024-03-02T09:58:55;16.80;90.30
52016;DHT22;38032;53.326;6.472;2024-03-02T10:01:21;17.20;85.50
52016;DHT22;38032;53.326;6.472;2024-03-02T10:03:47;17.70;83.00
52016;DHT22;38032;53.326;6.472;2024-03-02T10:06:20;17.90;81.40
52016;DHT22;38032;53.326;6.472;2024-03-02T10:08:46;18.00;80.70
52016;DHT22;38032;53.326;6.472;2024-03-02T10:11:30;17.90;79.30
52016;DHT22;38032;53.326;6.472;2024-03-02T10:14:10;17.60;79.30
52016;DHT22;38032;53.326;6.472;2024-03-02T10:16:37;17.50;78.30
52016;DHT22;38032;53.326;6.472;2024-03-02T10:19:19;17.80;79.00
52016;DHT22;38032;53.326;6.472;2024-03-02T10:21:46;18.20;79.20
52016;DHT22;38032;53.326;6.472;2024-03-02T10:24:13;18.60;78.10
52016;DHT22;38032;53.326;6.472;2024-03-02T10:26:39;18.90;76.70
52016;DHT22;38032;53.326;6.472;2024-03-02T10:29:05;19.10;78.70
52016;DHT22;38032;53.326;6.472;2024-03-02T10:31:31;19.40;75.50
52016;DHT22;38032;53.326;6.472;2024-03-02T10:33:58;19.60;74.40
52016;DHT22;38032;53.326;6.472;2024-03-02T10:36:25;19.70;73.60
52016;DHT22;38032;53.326;6.472;2024-03-02T10:38:52;20.00;73.10
52016;DHT22;38032;53.326;6.472;2024-03-02T10:41:24;20.10;71.80
52016;DHT22;38032;53.326;6.472;2024-03-02T10:43:52;20.40;70.90
52016;DHT22;38032;53.326;6.472;2024-03-02T10:46:28;20.60;70.20
52016;DHT22;38032;53.326;6.472;2024-03-02T10:48:56;20.60;68.60
52016;DHT22;38032;53.326;6.472;2024-03-02T10:51:25;20.70;67.90
52016;DHT22;38032;53.326;6.472;2024-03-02T10:53:52;20.60;67.80
52016;DHT22;38032;53.326;6.472;2024-03-02T10:56:24;20.30;66.80
52016;DHT22;38032;53.326;6.472;2024-03-02T10:59:35;20.00;67.30
52016;DHT22;38032;53.326;6.472;2024-03-02T11:01:57;19.60;67.00
52016;DHT22;38032;53.326;6.472;2024-03-02T11:04:26;19.30;67.90
52016;DHT22;38032;53.326;6.472;2024-03-02T11:06:56;19.30;69.00
52016;DHT22;38032;53.326;6.472;2024-03-02T11:09:26;19.30;69.00
52016;DHT22;38032;53.326;6.472;2024-03-02T11:12:00;19.30;68.70
52016;DHT22;38032;53.326;6.472;2024-03-02T11:14:32;19.40;68.50
52016;DHT22;38032;53.326;6.472;2024-03-02T11:17:00;19.40;68.40
52016;DHT22;38032;53.326;6.472;2024-03-02T11:19:27;19.40;68.80
52016;DHT22;38032;53.326;6.472;2024-03-02T11:21:54;19.40;68.60
52016;DHT22;38032;53.326;6.472;2024-03-02T11:26:51;19.40;67.50
52016;DHT22;38032;53.326;6.472;2024-03-02T11:32:03;18.90;71.60
52016;DHT22;38032;53.326;6.472;2024-03-02T11:34:31;18.50;67.80
52016;DHT22;38032;53.326;6.472;2024-03-02T11:36:57;18.40;68.20
52016;DHT22;38032;53.326;6.472;2024-03-02T11:39:26;18.20;68.30
52016;DHT22;38032;53.326;6.472;2024-03-02T11:41:52;18.00;68.50
52016;DHT22;38032;53.326;6.472;2024-03-02T11:44:18;17.90;68.50
52016;DHT22;38032;53.326;6.472;2024-03-02T11:46:46;17.80;68.30
52016;DHT22;38032;53.326;6.472;2024-03-02T11:52:05;17.50;68.40
52016;DHT22;38032;53.326;6.472;2024-03-02T11:54:33;17.40;69.80
52016;DHT22;38032;53.326;6.472;2024-03-02T11:57:02;17.40;71.60
52016;DHT22;38032;53.326;6.472;2024-03-02T11:59:29;17.20;75.50
52016;DHT22;38032;53.326;6.472;2024-03-02T12:01:56;17.20;76.20
52016;DHT22;38032;53.326;6.472;2024-03-02T12:04:22;17.20;76.00
52016;DHT22;38032;53.326;6.472;2024-03-02T12:06:55;17.20;76.40
52016;DHT22;38032;53.326;6.472;2024-03-02T12:09:22;17.30;77.30
52016;DHT22;38032;53.326;6.472;2024-03-02T12:11:48;17.10;77.80
52016;DHT22;38032;53.326;6.472;2024-03-02T12:14:14;17.20;77.20
52016;DHT22;38032;53.326;6.472;2024-03-02T12:16:44;17.30;77.30
52016;DHT22;38032;53.326;6.472;2024-03-02T12:19:09;17.20;77.00
52016;DHT22;38032;53.326;6.472;2024-03-02T12:21:36;17.10;77.10
52016;DHT22;38032;53.326;6.472;2024-03-02T12:24:03;17.00;78.70
52016;DHT22;38032;53.326;6.472;2024-03-02T12:26:29;16.90;76.50
52016;DHT22;38032;53.326;6.472;2024-03-02T12:28:55;16.70;71.00
52016;DHT22;38032;53.326;6.472;2024-03-02T12:31:23;16.60;70.00
52016;DHT22;38032;53.326;6.472;2024-03-02T12:33:49;16.50;71.70
52016;DHT22;38032;53.326;6.472;2024-03-02T12:36:15;16.40;70.80
52016;DHT22;38032;53.326;6.472;2024-03-02T12:38:44;16.20;80.40
52016;DHT22;38032;53.326;6.472;2024-03-02T12:41:10;16.10;90.00
52016;DHT22;38032;53.326;6.472;2024-03-02T12:43:38;15.70;70.40
52016;DHT22;38032;53.326;6.472;2024-03-02T12:46:05;15.70;70.80
52016;DHT22;38032;53.326;6.472;2024-03-02T12:48:31;15.50;70.70
52016;DHT22;38032;53.326;6.472;2024-03-02T12:50:57;15.30;71.40
52016;DHT22;38032;53.326;6.472;2024-03-02T12:53:23;15.20;72.10
52016;DHT22;38032;53.326;6.472;2024-03-02T12:55:49;15.20;72.70
52016;DHT22;38032;53.326;6.472;2024-03-02T12:58:20;15.10;73.10
52016;DHT22;38032;53.326;6.472;2024-03-02T13:00:47;15.10;73.00
52016;DHT22;38032;53.326;6.472;2024-03-02T13:03:13;15.00;73.10
52016;DHT22;38032;53.326;6.472;2024-03-02T13:05:39;15.00;73.90
52016;DHT22;38032;53.326;6.472;2024-03-02T13:08:06;14.90;74.20
52016;DHT22;38032;53.326;6.472;2024-03-02T13:10:33;14.80;73.90
52016;DHT22;38032;53.326;6.472;2024-03-02T13:12:59;14.80;74.60
52016;DHT22;38032;53.326;6.472;2024-03-02T13:15:26;14.90;75.00
52016;DHT22;38032;53.326;6.472;2024-03-02T13:17:52;14.90;75.80
52016;DHT22;38032;53.326;6.472;2024-03-02T13:20:18;14.80;76.40
52016;DHT22;38032;53.326;6.472;2024-03-02T13:22:45;14.80;76.80
52016;DHT22;38032;53.326;6.472;2024-03-02T13:25:15;14.80;76.10
52016;DHT22;38032;53.326;6.472;2024-03-02T13:27:42;14.70;75.80
52016;DHT22;38032;53.326;6.472;2024-03-02T13:30:09;14.70;76.80
52016;DHT22;38032;53.326;6.472;2024-03-02T13:32:35;14.70;77.60
52016;DHT22;38032;53.326;6.472;2024-03-02T13:35:01;14.70;78.10
52016;DHT22;38032;53.326;6.472;2024-03-02T13:37:28;14.80;78.00
52016;DHT22;38032;53.326;6.472;2024-03-02T13:39:54;14.70;77.90
52016;DHT22;38032;53.326;6.472;2024-03-02T13:42:20;14.70;77.60
52016;DHT22;38032;53.326;6.472;2024-03-02T13:44:46;14.70;77.90
52016;DHT22;38032;53.326;6.472;2024-03-02T13:47:13;14.70;78.50
52016;DHT22;38032;53.326;6.472;2024-03-02T13:49:39;14.80;78.20
52016;DHT22;38032;53.326;6.472;2024-03-02T13:52:09;14.80;78.20
52016;DHT22;38032;53.326;6.472;2024-03-02T13:54:38;14.80;78.50
52016;DHT22;38032;53.326;6.472;2024-03-02T13:57:05;14.70;78.80
52016;DHT22;38032;53.326;6.472;2024-03-02T13:59:31;14.70;79.10
52016;DHT22;38032;53.326;6.472;2024-03-02T14:01:57;14.60;80.50
52016;DHT22;38032;53.326;6.472;2024-03-02T14:04:23;14.40;80.60
52016;DHT22;38032;53.326;6.472;2024-03-02T14:06:49;14.30;80.70
52016;DHT22;38032;53.326;6.472;2024-03-02T14:09:15;14.20;81.20
52016;DHT22;38032;53.326;6.472;2024-03-02T14:11:41;14.20;82.60
52016;DHT22;38032;53.326;6.472;2024-03-02T14:14:07;14.20;83.20
52016;DHT22;38032;53.326;6.472;2024-03-02T14:16:34;14.20;83.60
52016;DHT22;38032;53.326;6.472;2024-03-02T14:18:59;14.20;83.70
52016;DHT22;38032;53.326;6.472;2024-03-02T14:21:25;14.10;83.80
52016;DHT22;38032;53.326;6.472;2024-03-02T14:23:52;14.10;83.50
52016;DHT22;38032;53.326;6.472;2024-03-02T14:26:18;14.00;84.80
52016;DHT22;38032;53.326;6.472;2024-03-02T14:28:45;14.00;86.10
52016;DHT22;38032;53.326;6.472;2024-03-02T14:31:11;13.90;86.40
52016;DHT22;38032;53.326;6.472;2024-03-02T14:33:37;13.80;85.90
52016;DHT22;38032;53.326;6.472;2024-03-02T14:36:03;13.80;86.70
52016;DHT22;38032;53.326;6.472;2024-03-02T14:38:31;13.80;88.10
52016;DHT22;38032;53.326;6.472;2024-03-02T14:40:57;13.80;88.20
52016;DHT22;38032;53.326;6.472;2024-03-02T14:43:24;13.70;88.60
52016;DHT22;38032;53.326;6.472;2024-03-02T14:45:50;13.80;88.60
52016;DHT22;38032;53.326;6.472;2024-03-02T14:48:16;13.70;88.50
52016;DHT22;38032;53.326;6.472;2024-03-02T14:50:42;13.60;88.60
52016;DHT22;38032;53.326;6.472;2024-03-02T14:53:08;13.60;88.90
52016;DHT22;38032;53.326;6.472;2024-03-02T14:55:34;13.60;88.20
52016;DHT22;38032;53.326;6.472;2024-03-02T14:58:00;13.50;88.90
52016;DHT22;38032;53.326;6.472;2024-03-02T15:00:26;13.60;90.20
52016;DHT22;38032;53.326;6.472;2024-03-02T15:02:52;13.60;90.40
52016;DHT22;38032;53.326;6.472;2024-03-02T15:05:18;13.60;90.90
52016;DHT22;38032;53.326;6.472;2024-03-02T15:07:45;13.60;91.00
52016;DHT22;38032;53.326;6.472;2024-03-02T15:10:11;13.50;90.80
52016;DHT22;38032;53.326;6.472;2024-03-02T15:12:37;13.50;91.20
52016;DHT22;38032;53.326;6.472;2024-03-02T15:15:03;13.50;91.40
52016;DHT22;38032;53.326;6.472;2024-03-02T15:17:30;13.50;91.20
52016;DHT22;38032;53.326;6.472;2024-03-02T15:19:56;13.50;91.20
52016;DHT22;38032;53.326;6.472;2024-03-02T15:22:22;13.50;91.30
52016;DHT22;38032;53.326;6.472;2024-03-02T15:24:47;13.50;92.00
52016;DHT22;38032;53.326;6.472;2024-03-02T15:27:14;13.40;92.40
52016;DHT22;38032;53.326;6.472;2024-03-02T15:29:40;13.40;93.20
52016;DHT22;38032;53.326;6.472;2024-03-02T15:32:06;13.40;93.50
52016;DHT22;38032;53.326;6.472;2024-03-02T15:34:33;13.40;94.00
52016;DHT22;38032;53.326;6.472;2024-03-02T15:36:59;13.30;94.50
52016;DHT22;38032;53.326;6.472;2024-03-02T15:39:26;13.30;95.10
52016;DHT22;38032;53.326;6.472;2024-03-02T15:41:52;13.30;95.60